createdAt,value
2019-03-26T00:02:08.494Z,4.73
2019-03-26T00:04:41.342Z,4.72
2019-03-26T00:07:14.490Z,4.62
2019-03-26T00:09:47.251Z,4.56
2019-03-26T00:12:20.136Z,4.55
2019-03-26T00:14:52.981Z,4.55
2019-03-26T00:17:25.788Z,4.57
2019-03-26T00:19:58.664Z,4.57
2019-03-26T00:22:31.783Z,4.55
2019-03-26T00:25:04.757Z,4.55
2019-03-26T00:27:37.551Z,4.60
2019-03-26T00:30:10.476Z,4.58
2019-03-26T00:32:43.224Z,4.55
2019-03-26T00:35:16.018Z,4.58
2019-03-26T00:37:49.115Z,4.55
2019-03-26T00:40:21.948Z,4.59
2019-03-26T00:42:54.828Z,4.51
2019-03-26T00:45:27.670Z,4.49
2019-03-26T00:48:00.733Z,4.52
2019-03-26T00:50:33.520Z,4.60
2019-03-26T00:53:06.398Z,4.67
2019-03-26T00:55:39.309Z,4.78
2019-03-26T00:58:12.073Z,4.70
2019-03-26T01:00:46.564Z,4.67
2019-03-26T01:03:19.290Z,4.71
2019-03-26T01:05:52.378Z,4.67
2019-03-26T01:08:25.156Z,4.73
2019-03-26T01:10:57.952Z,4.78
2019-03-26T01:13:31.175Z,4.81
2019-03-26T01:16:04.272Z,4.86
2019-03-26T01:18:37.140Z,4.88
2019-03-26T01:21:09.928Z,4.87
2019-03-26T01:23:42.658Z,4.86
2019-03-26T01:26:15.478Z,4.90
2019-03-26T01:28:48.234Z,4.90
2019-03-26T01:31:21.116Z,4.87
2019-03-26T01:33:53.978Z,4.90
2019-03-26T01:36:26.838Z,4.88
2019-03-26T01:38:59.748Z,4.86
2019-03-26T01:41:32.628Z,4.81
2019-03-26T01:44:05.469Z,4.78
2019-03-26T01:46:38.262Z,4.75
2019-03-26T01:49:11.274Z,4.77
2019-03-26T01:51:44.080Z,4.73
2019-03-26T01:54:16.898Z,4.72
2019-03-26T01:56:49.650Z,4.69
2019-03-26T01:59:22.424Z,4.63
2019-03-26T02:01:55.200Z,4.58
2019-03-26T02:04:28.019Z,4.51
2019-03-26T02:07:00.764Z,4.54
2019-03-26T02:09:33.706Z,4.57
2019-03-26T02:12:06.480Z,4.62
2019-03-26T02:14:39.264Z,4.67
2019-03-26T02:17:12.070Z,4.73
2019-03-26T02:19:44.950Z,4.72
2019-03-26T02:22:17.816Z,4.73
2019-03-26T02:24:50.562Z,4.75
2019-03-26T02:27:23.387Z,4.75
2019-03-26T02:29:56.142Z,4.72
2019-03-26T02:32:29.114Z,4.79
2019-03-26T02:35:17.165Z,4.81
2019-03-26T02:37:36.670Z,4.77
2019-03-26T02:40:10.035Z,4.71
2019-03-26T02:42:42.938Z,4.68
2019-03-26T02:45:15.698Z,4.66
2019-03-26T02:47:48.468Z,4.63
2019-03-26T02:50:21.282Z,4.60
2019-03-26T02:52:54.046Z,4.64
2019-03-26T02:55:26.809Z,4.66
2019-03-26T02:57:59.713Z,4.62
2019-03-26T03:00:32.484Z,4.54
2019-03-26T03:03:05.397Z,4.54
2019-03-26T03:05:38.256Z,4.55
2019-03-26T03:08:11.156Z,4.49
2019-03-26T03:10:43.970Z,4.43
2019-03-26T03:13:16.815Z,4.42
2019-03-26T03:15:49.598Z,4.38
2019-03-26T03:18:22.421Z,4.34
2019-03-26T03:20:55.260Z,4.30
2019-03-26T03:23:28.101Z,4.21
2019-03-26T03:26:01.034Z,4.17
2019-03-26T03:28:34.018Z,4.05
2019-03-26T03:31:06.809Z,4.01
2019-03-26T03:33:39.680Z,4.00
2019-03-26T03:36:12.502Z,4.02
2019-03-26T03:38:45.279Z,4.02
2019-03-26T03:41:18.106Z,4.11
2019-03-26T03:43:51.222Z,4.17
2019-03-26T03:46:24.238Z,4.15
2019-03-26T03:48:57.403Z,4.12
2019-03-26T03:51:31.573Z,4.16
2019-03-26T03:54:04.868Z,4.14
2019-03-26T03:56:39.238Z,4.13
2019-03-26T03:59:13.638Z,4.11
2019-03-26T04:01:46.418Z,4.07
2019-03-26T04:04:19.208Z,4.03
2019-03-26T04:06:51.961Z,4.09
2019-03-26T04:09:24.757Z,4.20
2019-03-26T04:11:58.778Z,4.26
2019-03-26T04:14:32.097Z,4.30
2019-03-26T04:17:04.945Z,4.33
2019-03-26T04:19:37.708Z,4.37
2019-03-26T04:22:11.149Z,4.34
2019-03-26T04:24:43.910Z,4.35
2019-03-26T04:27:16.690Z,4.27
2019-03-26T04:29:49.518Z,4.35
2019-03-26T04:32:22.300Z,4.31
2019-03-26T04:34:55.063Z,4.27
2019-03-26T04:37:28.030Z,4.30
2019-03-26T04:40:01.085Z,4.34
2019-03-26T04:42:33.888Z,4.41
2019-03-26T04:45:06.778Z,4.44
2019-03-26T04:47:39.552Z,4.47
2019-03-26T04:50:12.298Z,4.43
2019-03-26T04:52:45.110Z,4.44
2019-03-26T04:55:18.084Z,4.39
2019-03-26T04:57:51.182Z,4.39
2019-03-26T05:00:25.080Z,4.34
2019-03-26T05:02:57.926Z,4.26
2019-03-26T05:05:30.746Z,4.28
2019-03-26T05:08:03.551Z,4.41
2019-03-26T05:10:36.468Z,4.53
2019-03-26T05:13:09.364Z,4.54
2019-03-26T05:15:42.186Z,4.69
2019-03-26T05:18:15.188Z,4.76
2019-03-26T05:20:49.036Z,4.73
2019-03-26T05:23:22.120Z,4.82
2019-03-26T05:25:55.024Z,4.98
2019-03-26T05:28:27.793Z,5.05
2019-03-26T05:31:02.269Z,5.20
2019-03-26T05:33:35.256Z,5.29
2019-03-26T05:36:08.033Z,5.99
2019-03-26T05:38:41.178Z,7.13
2019-03-26T05:41:14.095Z,8.62
2019-03-26T05:43:46.881Z,10.05
2019-03-26T05:46:19.681Z,11.49
2019-03-26T05:48:52.566Z,12.57
2019-03-26T05:51:25.603Z,13.22
2019-03-26T05:53:58.506Z,13.83
2019-03-26T05:56:31.777Z,14.08
2019-03-26T05:59:04.660Z,15.40
2019-03-26T06:01:37.483Z,16.25
2019-03-26T06:04:10.339Z,15.12
2019-03-26T06:06:43.155Z,14.51
2019-03-26T06:09:17.070Z,12.87
2019-03-26T06:11:49.938Z,12.04
2019-03-26T06:14:22.786Z,13.22
2019-03-26T06:16:55.621Z,12.51
2019-03-26T06:19:28.473Z,11.49
2019-03-26T06:22:01.834Z,10.74
2019-03-26T06:24:35.596Z,9.96
2019-03-26T06:27:08.501Z,9.09
2019-03-26T06:29:41.253Z,8.44
2019-03-26T06:32:14.101Z,8.34
2019-03-26T06:34:46.956Z,8.48
2019-03-26T06:37:19.904Z,8.36
2019-03-26T06:39:52.726Z,8.20
2019-03-26T06:42:25.511Z,8.23
2019-03-26T06:44:58.267Z,8.24
2019-03-26T06:47:31.425Z,8.14
2019-03-26T06:50:04.262Z,8.00
2019-03-26T06:52:37.042Z,7.94
2019-03-26T06:55:10.566Z,7.99
2019-03-26T06:57:43.572Z,7.93
2019-03-26T07:00:20.394Z,7.76
2019-03-26T07:02:53.146Z,7.48
2019-03-26T07:05:25.994Z,7.37
2019-03-26T07:07:58.840Z,7.47
2019-03-26T07:10:32.200Z,7.50
2019-03-26T07:13:05.061Z,7.52
2019-03-26T07:15:37.963Z,7.52
2019-03-26T07:18:11.158Z,7.43
2019-03-26T07:20:43.953Z,7.42
2019-03-26T07:23:16.756Z,7.64
2019-03-26T07:25:49.657Z,7.67
2019-03-26T07:28:22.962Z,7.72
2019-03-26T07:30:57.092Z,7.91
2019-03-26T07:33:31.420Z,7.87
2019-03-26T07:36:04.326Z,7.86
2019-03-26T07:38:37.120Z,8.24
2019-03-26T07:41:09.978Z,8.58
2019-03-26T07:43:42.922Z,9.09
2019-03-26T07:46:15.881Z,10.02
2019-03-26T07:48:48.698Z,10.67
2019-03-26T07:51:21.586Z,10.65
2019-03-26T07:53:54.470Z,10.98
2019-03-26T07:56:27.380Z,13.06
2019-03-26T07:59:00.193Z,15.97
2019-03-26T08:01:33.259Z,15.55
2019-03-26T08:04:06.294Z,16.03
2019-03-26T08:06:39.202Z,15.96
2019-03-26T08:09:12.193Z,15.94
2019-03-26T08:11:45.078Z,15.74
2019-03-26T08:14:17.888Z,18.28
2019-03-26T08:16:51.187Z,24.35
2019-03-26T08:19:23.967Z,24.88
2019-03-26T08:22:00.568Z,26.89
2019-03-26T08:24:33.436Z,22.70
2019-03-26T08:27:06.260Z,20.22
2019-03-26T08:29:39.186Z,18.06
2019-03-26T08:32:12.115Z,15.95
2019-03-26T08:34:46.815Z,14.79
2019-03-26T08:37:19.978Z,14.73
2019-03-26T08:39:52.792Z,14.96
2019-03-26T08:42:25.788Z,14.00
2019-03-26T08:44:58.603Z,13.13
2019-03-26T08:47:31.582Z,12.49
2019-03-26T08:50:05.589Z,12.10
2019-03-26T08:52:38.516Z,11.88
2019-03-26T08:55:12.678Z,12.66
2019-03-26T08:57:45.862Z,13.03
2019-03-26T09:00:20.525Z,14.22
2019-03-26T09:02:53.470Z,14.37
2019-03-26T09:05:26.310Z,13.55
2019-03-26T09:07:59.336Z,13.00
2019-03-26T09:10:32.189Z,13.45
2019-03-26T09:13:05.046Z,14.43
2019-03-26T09:15:37.884Z,16.49
2019-03-26T09:18:10.685Z,15.01
2019-03-26T09:20:43.551Z,13.47
2019-03-26T09:23:16.379Z,12.35
2019-03-26T09:25:49.161Z,11.51
2019-03-26T09:28:22.143Z,11.93
2019-03-26T09:30:55.021Z,12.73
2019-03-26T09:33:28.143Z,19.38
2019-03-26T09:36:01.304Z,28.81
2019-03-26T09:38:39.164Z,31.10
2019-03-26T09:41:08.698Z,25.76
2019-03-26T09:43:41.548Z,21.64
2019-03-26T09:46:14.402Z,24.19
2019-03-26T09:48:47.236Z,29.30
2019-03-26T09:51:20.079Z,26.81
2019-03-26T09:53:52.991Z,28.34
2019-03-26T09:56:29.369Z,26.06
2019-03-26T09:59:00.401Z,25.87
2019-03-26T10:01:33.200Z,24.00
2019-03-26T10:04:06.057Z,22.26
2019-03-26T10:06:38.833Z,26.89
2019-03-26T10:09:12.004Z,33.03
2019-03-26T10:11:44.834Z,32.79
2019-03-26T10:14:17.651Z,36.69
2019-03-26T10:16:50.561Z,35.68
2019-03-26T10:19:23.417Z,34.89
2019-03-26T10:21:56.521Z,36.29
2019-03-26T10:24:29.372Z,32.17
2019-03-26T10:27:02.280Z,33.29
2019-03-26T10:29:35.249Z,31.09
2019-03-26T10:32:08.129Z,30.22
2019-03-26T10:34:41.486Z,30.78
2019-03-26T10:37:14.304Z,31.87
2019-03-26T10:39:47.187Z,29.45
2019-03-26T10:42:20.109Z,25.86
2019-03-26T10:44:53.084Z,22.57
2019-03-26T10:47:25.943Z,22.08
2019-03-26T10:49:59.969Z,22.30
2019-03-26T10:52:34.376Z,21.00
2019-03-26T10:55:07.781Z,20.48
2019-03-26T10:57:41.136Z,19.47
2019-03-26T11:00:14.367Z,20.60
2019-03-26T11:02:47.348Z,23.80
2019-03-26T11:05:20.335Z,21.49
2019-03-26T11:07:53.489Z,19.63
2019-03-26T11:10:26.332Z,18.22
2019-03-26T11:12:59.233Z,18.23
2019-03-26T11:15:33.686Z,21.91
2019-03-26T11:18:06.960Z,22.43
2019-03-26T11:20:41.779Z,23.09
2019-03-26T11:23:14.867Z,21.79
2019-03-26T11:25:47.821Z,21.52
2019-03-26T11:28:20.991Z,23.52
2019-03-26T11:30:53.893Z,22.12
2019-03-26T11:33:26.719Z,21.33
2019-03-26T11:36:00.617Z,19.99
2019-03-26T11:38:33.556Z,19.14
2019-03-26T11:41:06.543Z,19.88
2019-03-26T11:43:39.677Z,21.54
2019-03-26T11:46:12.600Z,22.52
2019-03-26T11:48:45.393Z,21.19
2019-03-26T11:51:18.323Z,19.22
2019-03-26T11:53:51.621Z,17.61
2019-03-26T11:56:24.399Z,17.00
2019-03-26T11:58:57.326Z,16.89
2019-03-26T12:01:31.318Z,16.69
2019-03-26T12:04:04.287Z,16.71
2019-03-26T12:06:37.225Z,16.59
2019-03-26T12:09:11.903Z,15.86
2019-03-26T12:11:46.276Z,15.35
2019-03-26T12:14:19.121Z,14.76
2019-03-26T12:16:52.055Z,14.46
2019-03-26T12:19:25.023Z,14.90
2019-03-26T12:21:57.871Z,14.76
2019-03-26T12:24:31.148Z,14.20
2019-03-26T12:27:04.023Z,14.95
2019-03-26T12:29:36.859Z,15.44
2019-03-26T12:32:09.688Z,15.36
2019-03-26T12:34:42.548Z,14.87
2019-03-26T12:37:15.329Z,14.18
2019-03-26T12:39:58.944Z,13.53
2019-03-26T12:42:23.838Z,12.90
2019-03-26T12:44:56.665Z,12.32
2019-03-26T12:47:29.533Z,11.98
2019-03-26T12:50:02.323Z,11.88
2019-03-26T12:52:35.133Z,12.33
2019-03-26T12:55:08.178Z,12.38
2019-03-26T12:57:40.964Z,12.09
2019-03-26T13:00:13.942Z,11.73
2019-03-26T13:02:46.787Z,11.42
2019-03-26T13:05:19.594Z,11.07
2019-03-26T13:07:52.375Z,10.90
2019-03-26T13:10:25.241Z,11.12
2019-03-26T13:12:58.229Z,11.41
2019-03-26T13:15:33.010Z,11.71
2019-03-26T13:18:07.498Z,12.13
2019-03-26T13:20:40.405Z,11.93
2019-03-26T13:23:13.270Z,11.62
2019-03-26T13:25:46.371Z,11.66
2019-03-26T13:28:19.308Z,11.84
2019-03-26T13:30:52.173Z,11.90
2019-03-26T13:33:25.279Z,12.10
2019-03-26T13:35:58.144Z,12.28
2019-03-26T13:38:31.852Z,12.22
2019-03-26T13:41:04.853Z,11.84
2019-03-26T13:43:37.635Z,11.87
2019-03-26T13:46:11.312Z,12.17
2019-03-26T13:48:44.378Z,12.43
2019-03-26T13:51:17.295Z,12.63
2019-03-26T13:53:50.104Z,13.03
2019-03-26T13:56:23.023Z,13.14
2019-03-26T13:58:58.055Z,13.01
2019-03-26T14:01:31.244Z,12.53
2019-03-26T14:04:04.157Z,12.15
2019-03-26T14:06:36.958Z,11.77
2019-03-26T14:09:10.760Z,11.37
2019-03-26T14:11:44.786Z,11.51
2019-03-26T14:14:19.292Z,11.31
2019-03-26T14:16:52.107Z,10.98
2019-03-26T14:19:25.077Z,10.65
2019-03-26T14:22:19.849Z,10.63
2019-03-26T14:24:52.796Z,10.57
2019-03-26T14:27:27.366Z,10.30
2019-03-26T14:30:00.806Z,10.58
2019-03-26T14:32:34.662Z,10.77
2019-03-26T14:35:07.914Z,10.97
2019-03-26T14:37:51.277Z,11.14
2019-03-26T14:40:16.498Z,11.01
2019-03-26T14:42:51.198Z,10.95
2019-03-26T14:45:24.114Z,10.94
2019-03-26T14:47:56.927Z,10.57
2019-03-26T14:50:29.820Z,10.46
2019-03-26T14:53:02.790Z,10.45
2019-03-26T14:55:35.746Z,10.12
2019-03-26T14:58:08.543Z,9.92
2019-03-26T15:00:41.757Z,9.88
2019-03-26T15:03:14.551Z,10.11
2019-03-26T15:05:47.363Z,9.84
2019-03-26T15:08:20.379Z,9.64
2019-03-26T15:10:53.208Z,9.57
2019-03-26T15:13:26.142Z,9.18
2019-03-26T15:15:58.938Z,8.88
2019-03-26T15:18:32.156Z,8.72
2019-03-26T15:21:04.969Z,8.42
2019-03-26T15:23:37.909Z,8.26
2019-03-26T15:26:10.793Z,8.18
2019-03-26T15:28:43.552Z,8.31
2019-03-26T15:31:16.436Z,8.35
2019-03-26T15:33:49.332Z,8.31
2019-03-26T15:36:22.231Z,8.33
2019-03-26T15:38:55.066Z,8.35
2019-03-26T15:41:30.361Z,8.38
2019-03-26T15:44:02.412Z,8.40
2019-03-26T15:46:36.558Z,8.45
2019-03-26T15:49:09.755Z,8.57
2019-03-26T15:51:42.669Z,8.50
2019-03-26T15:54:15.552Z,8.41
2019-03-26T15:56:48.337Z,8.31
2019-03-26T15:59:23.032Z,8.31
2019-03-26T16:01:55.845Z,8.25
2019-03-26T16:04:28.662Z,8.20
2019-03-26T16:07:01.829Z,8.11
2019-03-26T16:09:34.657Z,8.09
2019-03-26T16:12:07.440Z,7.99
2019-03-26T16:14:40.191Z,7.98
2019-03-26T16:17:12.991Z,7.93
2019-03-26T16:19:45.753Z,7.79
2019-03-26T16:22:18.595Z,7.63
2019-03-26T16:24:53.442Z,7.42
2019-03-26T16:27:26.374Z,7.33
2019-03-26T16:29:59.291Z,7.26
2019-03-26T16:32:32.084Z,7.31
2019-03-26T16:35:04.893Z,7.31
2019-03-26T16:37:37.707Z,7.22
2019-03-26T16:40:11.095Z,7.12
2019-03-26T16:42:43.908Z,6.97
2019-03-26T16:45:16.802Z,7.02
2019-03-26T16:47:49.563Z,7.04
2019-03-26T16:50:22.323Z,7.08
2019-03-26T16:52:55.276Z,7.12
2019-03-26T16:55:28.057Z,7.03
2019-03-26T16:58:01.197Z,6.96
2019-03-26T17:00:35.601Z,6.89
2019-03-26T17:03:08.367Z,6.83
2019-03-26T17:05:41.462Z,6.88
2019-03-26T17:08:14.293Z,6.86
2019-03-26T17:10:48.587Z,6.82
2019-03-26T17:13:21.688Z,6.81
2019-03-26T17:15:54.627Z,6.73
2019-03-26T17:18:27.377Z,6.70
2019-03-26T17:21:00.843Z,6.66
2019-03-26T17:23:33.703Z,6.62
2019-03-26T17:26:06.536Z,6.66
2019-03-26T17:28:39.356Z,6.70
2019-03-26T17:31:12.127Z,6.70
2019-03-26T17:33:44.913Z,6.70
2019-03-26T17:36:17.974Z,6.80
2019-03-26T17:38:50.947Z,6.81
2019-03-26T17:41:23.918Z,6.77
2019-03-26T17:43:56.693Z,6.76
2019-03-26T17:46:29.552Z,6.82
2019-03-26T17:49:02.474Z,6.78
2019-03-26T17:51:35.467Z,6.82
2019-03-26T17:54:08.305Z,6.79
2019-03-26T17:56:41.119Z,6.67
2019-03-26T17:59:13.941Z,6.65
2019-03-26T18:01:47.160Z,6.56
2019-03-26T18:04:20.141Z,6.54
2019-03-26T18:06:52.919Z,6.51
2019-03-26T18:09:25.659Z,6.57
2019-03-26T18:11:58.667Z,6.62
2019-03-26T18:14:31.978Z,6.63
2019-03-26T18:17:04.788Z,6.66
2019-03-26T18:19:37.723Z,6.63
2019-03-26T18:22:11.132Z,6.65
2019-03-26T18:24:43.932Z,6.60
2019-03-26T18:27:16.702Z,6.60
2019-03-26T18:29:49.541Z,6.65
2019-03-26T18:32:22.490Z,6.63
2019-03-26T18:34:55.364Z,6.56
2019-03-26T18:37:28.201Z,6.53
2019-03-26T18:40:01.547Z,6.47
2019-03-26T18:42:43.896Z,6.37
2019-03-26T18:45:09.255Z,6.40
2019-03-26T18:47:42.143Z,6.43
2019-03-26T18:50:16.092Z,6.47
2019-03-26T18:52:49.016Z,6.51
2019-03-26T18:55:25.044Z,6.55
2019-03-26T18:57:56.594Z,6.64
2019-03-26T19:00:40.327Z,6.64
2019-03-26T19:03:13.210Z,6.67
2019-03-26T19:05:46.303Z,6.62
2019-03-26T19:08:19.438Z,6.59
2019-03-26T19:10:52.438Z,6.51
2019-03-26T19:13:25.328Z,6.38
2019-03-26T19:15:58.262Z,6.05
2019-03-26T19:18:31.597Z,5.69
2019-03-26T19:21:04.447Z,5.37
2019-03-26T19:23:37.427Z,5.22
2019-03-26T19:26:10.407Z,5.08
2019-03-26T19:28:43.224Z,4.94
2019-03-26T19:31:16.187Z,4.86
2019-03-26T19:33:49.079Z,4.89
2019-03-26T19:36:22.046Z,4.88
2019-03-26T19:38:54.876Z,4.92
2019-03-26T19:41:27.710Z,4.92
2019-03-26T19:44:00.895Z,4.96
2019-03-26T19:46:33.870Z,5.01
2019-03-26T19:49:06.676Z,5.02
2019-03-26T19:51:39.579Z,4.93
2019-03-26T19:54:12.352Z,4.89
2019-03-26T19:56:45.193Z,4.79
2019-03-26T19:59:18.109Z,4.75
2019-03-26T20:01:52.888Z,4.79
2019-03-26T20:04:26.035Z,4.78
2019-03-26T20:06:59.106Z,4.77
2019-03-26T20:09:32.072Z,4.78
2019-03-26T20:12:05.145Z,4.97
2019-03-26T20:14:38.132Z,4.96
2019-03-26T20:17:11.013Z,4.95
2019-03-26T20:19:44.018Z,4.96
2019-03-26T20:22:17.006Z,4.97
2019-03-26T20:24:49.890Z,4.96
2019-03-26T20:27:22.789Z,4.89
2019-03-26T20:29:55.622Z,4.86
2019-03-26T20:32:28.512Z,4.91
2019-03-26T20:35:01.323Z,4.79
2019-03-26T20:37:34.310Z,4.75
2019-03-26T20:40:08.990Z,4.83
2019-03-26T20:42:41.992Z,4.83
2019-03-26T20:45:15.023Z,4.81
2019-03-26T20:47:47.933Z,4.83
2019-03-26T20:50:20.880Z,4.83
2019-03-26T20:52:53.731Z,4.86
2019-03-26T20:55:36.855Z,4.87
2019-03-26T20:58:09.845Z,4.98
2019-03-26T21:00:44.066Z,5.03
2019-03-26T21:03:17.115Z,5.05
2019-03-26T21:05:50.032Z,5.03
2019-03-26T21:08:22.854Z,5.02
2019-03-26T21:10:55.620Z,5.02
2019-03-26T21:13:28.600Z,5.05
2019-03-26T21:16:01.494Z,5.05
2019-03-26T21:18:34.318Z,5.04
2019-03-26T21:21:07.241Z,4.98
2019-03-26T21:23:40.102Z,4.96
2019-03-26T21:26:13.104Z,4.95
2019-03-26T21:28:48.192Z,4.96
2019-03-26T21:31:21.407Z,5.01
2019-03-26T21:33:54.291Z,5.10
2019-03-26T21:36:27.187Z,5.08
2019-03-26T21:39:00.096Z,5.12
2019-03-26T21:41:32.848Z,5.13
2019-03-26T21:44:05.865Z,5.16
2019-03-26T21:46:38.654Z,5.13
2019-03-26T21:49:11.457Z,5.08
2019-03-26T21:51:44.250Z,5.04
2019-03-26T21:54:16.996Z,4.94
2019-03-26T21:56:49.879Z,4.89
2019-03-26T21:59:22.734Z,4.84
2019-03-26T22:01:55.628Z,4.85
2019-03-26T22:04:28.600Z,4.86
2019-03-26T22:07:01.664Z,4.83
2019-03-26T22:09:34.524Z,4.83
2019-03-26T22:12:07.288Z,4.84
2019-03-26T22:14:40.161Z,4.88
2019-03-26T22:17:13.108Z,4.88
2019-03-26T22:19:46.085Z,4.86
2019-03-26T22:22:19.014Z,4.82
2019-03-26T22:24:52.029Z,4.72
2019-03-26T22:27:24.830Z,4.75
2019-03-26T22:29:57.731Z,4.74
2019-03-26T22:32:30.595Z,4.74
2019-03-26T22:35:03.500Z,4.79
2019-03-26T22:37:36.496Z,4.79
2019-03-26T22:40:10.890Z,4.79
2019-03-26T22:42:43.820Z,4.74
2019-03-26T22:45:17.321Z,4.73
2019-03-26T22:47:50.076Z,4.71
2019-03-26T22:50:23.236Z,4.73
2019-03-26T22:52:56.175Z,4.70
2019-03-26T22:55:28.982Z,4.65
2019-03-26T22:58:02.053Z,4.67
2019-03-26T23:00:36.691Z,4.66
2019-03-26T23:03:09.786Z,4.64
2019-03-26T23:05:42.596Z,4.63
2019-03-26T23:08:15.363Z,4.54
2019-03-26T23:10:48.149Z,4.48
2019-03-26T23:13:20.927Z,4.45
2019-03-26T23:15:53.912Z,4.42
2019-03-26T23:18:26.762Z,4.42
2019-03-26T23:20:59.668Z,4.38
2019-03-26T23:23:32.663Z,4.39
2019-03-26T23:26:06.630Z,4.32
2019-03-26T23:28:39.547Z,4.27
2019-03-26T23:31:12.452Z,4.26
2019-03-26T23:33:45.243Z,4.26
2019-03-26T23:36:17.970Z,4.20
2019-03-26T23:38:51.410Z,4.12
2019-03-26T23:41:24.299Z,4.07
2019-03-26T23:43:57.108Z,4.00
2019-03-26T23:46:29.846Z,3.94
2019-03-26T23:49:02.706Z,3.89
2019-03-26T23:51:35.557Z,3.85
2019-03-26T23:54:08.444Z,3.90
2019-03-26T23:56:41.751Z,3.86
2019-03-26T23:59:14.514Z,3.84
